createdAt,value
2022-12-18T00:01:21.417Z,75.95
2022-12-18T00:03:48.787Z,76.50
2022-12-18T00:06:16.702Z,83.95
2022-12-18T00:08:44.432Z,76.93
2022-12-18T00:11:23.181Z,76.00
2022-12-18T00:13:50.689Z,76.30
2022-12-18T00:16:23.081Z,78.05
2022-12-18T00:18:51.249Z,75.90
2022-12-18T00:21:18.702Z,74.35
2022-12-18T00:23:46.752Z,73.45
2022-12-18T00:26:21.677Z,74.28
2022-12-18T00:28:49.012Z,74.03
2022-12-18T00:31:18.401Z,73.60
2022-12-18T00:33:45.379Z,70.95
2022-12-18T00:36:15.773Z,69.68
2022-12-18T00:38:42.528Z,70.13
2022-12-18T00:41:10.680Z,72.95
2022-12-18T00:43:38.961Z,70.30
2022-12-18T00:46:06.463Z,72.50
2022-12-18T00:48:33.180Z,70.93
2022-12-18T00:50:59.684Z,71.80
2022-12-18T00:53:26.236Z,73.90
2022-12-18T00:55:52.775Z,69.30
2022-12-18T00:58:19.717Z,68.63
2022-12-18T01:00:46.329Z,71.15
2022-12-18T01:03:15.743Z,72.07
2022-12-18T01:05:43.029Z,71.20
2022-12-18T01:08:10.224Z,70.97
2022-12-18T01:10:36.806Z,72.38
2022-12-18T01:13:03.384Z,71.00
2022-12-18T01:15:29.879Z,70.28
2022-12-18T01:17:56.406Z,72.07
2022-12-18T01:20:23.042Z,73.10
2022-12-18T01:22:49.564Z,74.25
2022-12-18T01:25:16.213Z,72.57
2022-12-18T01:27:42.720Z,72.53
2022-12-18T01:30:09.696Z,74.70
2022-12-18T01:32:36.237Z,77.45
2022-12-18T01:35:03.198Z,79.32
2022-12-18T01:37:29.980Z,84.78
2022-12-18T01:39:56.577Z,84.75
2022-12-18T01:42:23.149Z,84.97
2022-12-18T01:45:12.775Z,84.45
2022-12-18T01:47:41.227Z,80.60
2022-12-18T01:50:18.461Z,78.25
2022-12-18T01:52:48.693Z,76.80
2022-12-18T01:55:19.261Z,78.00
2022-12-18T01:57:47.308Z,76.00
2022-12-18T02:00:18.505Z,78.10
2022-12-18T02:02:47.220Z,79.72
2022-12-18T02:05:18.762Z,79.43
2022-12-18T02:08:07.649Z,79.45
2022-12-18T02:10:48.105Z,79.32
2022-12-18T02:13:25.099Z,81.28
2022-12-18T02:16:00.616Z,82.35
2022-12-18T02:18:41.957Z,81.57
2022-12-18T02:21:35.255Z,83.93
2022-12-18T02:24:18.513Z,81.30
2022-12-18T02:26:54.323Z,84.05
2022-12-18T02:29:29.836Z,90.18
2022-12-18T02:32:00.252Z,92.32
2022-12-18T02:34:31.351Z,90.75
2022-12-18T02:37:01.052Z,96.40
2022-12-18T02:39:30.320Z,101.28
2022-12-18T02:41:58.526Z,106.55
2022-12-18T02:44:25.061Z,100.20
2022-12-18T02:46:53.527Z,101.57
2022-12-18T02:49:40.769Z,102.30
2022-12-18T02:52:13.197Z,104.05
2022-12-18T02:55:01.401Z,105.38
2022-12-18T02:57:49.231Z,115.53
2022-12-18T03:00:22.586Z,112.88
2022-12-18T03:03:04.410Z,113.40
2022-12-18T03:05:54.530Z,116.90
2022-12-18T03:08:43.518Z,111.88
2022-12-18T03:11:12.250Z,106.30
2022-12-18T03:13:51.865Z,109.72
2022-12-18T03:16:24.211Z,111.35
2022-12-18T03:18:56.927Z,107.93
2022-12-18T03:21:29.945Z,108.75
2022-12-18T03:23:57.798Z,110.95
2022-12-18T03:26:28.078Z,112.25
2022-12-18T03:29:00.380Z,115.05
2022-12-18T03:31:30.588Z,110.72
2022-12-18T03:34:02.009Z,115.75
2022-12-18T03:36:29.019Z,115.40
2022-12-18T03:38:55.549Z,119.05
2022-12-18T03:41:46.112Z,120.57
2022-12-18T03:44:18.156Z,114.13
2022-12-18T03:47:13.793Z,120.13
2022-12-18T03:49:53.854Z,116.50
2022-12-18T03:52:40.681Z,119.88
2022-12-18T03:55:10.203Z,121.70
2022-12-18T03:57:38.306Z,122.72
2022-12-18T04:00:12.976Z,130.43
2022-12-18T04:05:09.449Z,110.78
2022-12-18T04:07:37.053Z,119.35
2022-12-18T04:10:05.469Z,129.52
2022-12-18T04:12:32.028Z,141.10
2022-12-18T04:14:58.660Z,147.00
2022-12-18T04:17:25.505Z,146.73
2022-12-18T04:19:52.041Z,139.82
2022-12-18T04:22:21.149Z,139.02
2022-12-18T04:24:47.689Z,145.57
2022-12-18T04:27:14.244Z,142.40
2022-12-18T04:29:40.878Z,138.60
2022-12-18T04:32:08.204Z,140.35
2022-12-18T04:34:34.704Z,173.63
2022-12-18T04:37:01.257Z,144.10
2022-12-18T04:39:27.902Z,148.48
2022-12-18T04:41:54.460Z,162.00
2022-12-18T04:44:21.438Z,152.38
2022-12-18T04:46:48.019Z,162.82
2022-12-18T04:49:14.658Z,161.10
2022-12-18T04:51:41.177Z,174.65
2022-12-18T04:54:07.649Z,174.63
2022-12-18T04:56:34.208Z,173.05
2022-12-18T04:59:00.723Z,159.30
2022-12-18T05:01:34.109Z,151.45
2022-12-18T05:04:01.924Z,146.32
2022-12-18T05:06:28.464Z,136.10
2022-12-18T05:08:54.946Z,131.38
2022-12-18T05:11:21.681Z,124.20
2022-12-18T05:13:48.240Z,121.68
2022-12-18T05:16:15.603Z,127.70
2022-12-18T05:18:42.658Z,115.28
2022-12-18T05:21:09.518Z,114.60
2022-12-18T05:23:37.215Z,113.93
2022-12-18T05:26:06.202Z,119.25
2022-12-18T05:28:34.447Z,124.47
2022-12-18T05:31:03.274Z,121.25
2022-12-18T05:33:32.792Z,126.25
2022-12-18T05:36:04.575Z,122.93
2022-12-18T05:38:32.247Z,129.55
2022-12-18T05:40:59.269Z,127.10
2022-12-18T05:43:27.264Z,136.25
2022-12-18T05:45:54.373Z,122.07
2022-12-18T05:48:21.585Z,114.75
2022-12-18T05:50:49.494Z,128.55
2022-12-18T05:53:18.915Z,114.10
2022-12-18T05:55:45.499Z,122.88
2022-12-18T05:58:13.701Z,125.97
2022-12-18T06:00:43.386Z,115.25
2022-12-18T06:03:12.269Z,116.68
2022-12-18T06:05:44.316Z,121.53
2022-12-18T06:08:11.902Z,120.93
2022-12-18T06:10:38.945Z,127.30
2022-12-18T06:13:06.768Z,138.55
2022-12-18T06:15:34.032Z,131.63
2022-12-18T06:18:01.689Z,131.90
2022-12-18T06:20:33.231Z,127.70
2022-12-18T06:23:00.336Z,128.65
2022-12-18T06:25:27.147Z,130.50
2022-12-18T06:27:53.698Z,125.10
2022-12-18T06:30:20.524Z,116.03
2022-12-18T06:32:50.496Z,106.07
2022-12-18T06:35:19.574Z,112.82
2022-12-18T06:37:47.695Z,118.45
2022-12-18T06:40:14.196Z,126.03
2022-12-18T06:42:40.741Z,129.50
2022-12-18T06:45:07.790Z,128.20
2022-12-18T06:47:34.336Z,122.32
2022-12-18T06:50:00.820Z,121.00
2022-12-18T06:52:27.319Z,117.85
2022-12-18T06:54:53.829Z,113.38
2022-12-18T06:57:20.428Z,106.93
2022-12-18T06:59:46.954Z,105.68
2022-12-18T07:02:14.252Z,107.50
2022-12-18T07:04:41.221Z,106.65
2022-12-18T07:07:07.833Z,590.55
2022-12-18T07:09:34.457Z,108.38
2022-12-18T07:12:00.978Z,112.10
2022-12-18T07:14:27.651Z,119.25
2022-12-18T07:16:54.275Z,114.68
2022-12-18T07:19:21.407Z,121.65
2022-12-18T07:21:47.910Z,116.85
2022-12-18T07:24:14.429Z,125.28
2022-12-18T07:26:40.922Z,136.15
2022-12-18T07:29:07.541Z,131.13
2022-12-18T07:31:34.161Z,134.98
2022-12-18T07:34:00.737Z,137.27
2022-12-18T07:36:27.373Z,139.35
2022-12-18T07:38:54.003Z,132.68
2022-12-18T07:41:20.951Z,126.88
2022-12-18T07:43:48.161Z,134.68
2022-12-18T07:46:16.599Z,132.82
2022-12-18T07:48:46.126Z,150.90
2022-12-18T07:51:17.513Z,157.88
2022-12-18T07:53:45.206Z,137.70
2022-12-18T07:56:30.522Z,121.25
2022-12-18T07:58:59.143Z,127.53
2022-12-18T08:01:26.363Z,136.15
2022-12-18T08:03:53.064Z,120.22
2022-12-18T08:06:22.778Z,85.38
2022-12-18T08:08:55.821Z,85.97
2022-12-18T08:11:23.650Z,102.07
2022-12-18T08:13:50.407Z,98.95
2022-12-18T08:16:18.013Z,97.47
2022-12-18T08:18:44.733Z,122.28
2022-12-18T08:21:22.004Z,128.93
2022-12-18T08:23:49.050Z,143.82
2022-12-18T08:26:16.899Z,188.20
2022-12-18T08:28:43.771Z,201.63
2022-12-18T08:31:10.542Z,202.95
2022-12-18T08:33:39.024Z,201.18
2022-12-18T08:36:06.480Z,175.93
2022-12-18T08:38:34.077Z,167.85
2022-12-18T08:41:01.786Z,151.50
2022-12-18T08:43:47.104Z,104.10
2022-12-18T08:46:13.990Z,98.03
2022-12-18T08:48:43.521Z,81.65
2022-12-18T08:51:10.731Z,59.25
2022-12-18T08:53:37.905Z,54.92
2022-12-18T08:56:05.692Z,51.60
2022-12-18T08:58:32.378Z,41.72
2022-12-18T09:01:03.375Z,41.75
2022-12-18T09:03:30.495Z,47.22
2022-12-18T09:05:57.476Z,45.80
2022-12-18T09:08:24.299Z,48.63
2022-12-18T09:10:52.554Z,42.38
2022-12-18T09:13:19.662Z,44.45
2022-12-18T09:15:48.749Z,41.60
2022-12-18T09:18:17.197Z,41.22
2022-12-18T09:20:44.057Z,39.03
2022-12-18T09:23:11.084Z,38.50
2022-12-18T09:25:38.541Z,41.58
2022-12-18T09:28:08.183Z,36.92
2022-12-18T09:30:35.405Z,37.22
2022-12-18T09:33:02.605Z,38.60
2022-12-18T09:35:29.158Z,37.53
2022-12-18T09:37:55.828Z,37.92
2022-12-18T09:40:26.561Z,38.17
2022-12-18T09:42:58.445Z,40.00
2022-12-18T09:45:25.402Z,38.53
2022-12-18T09:47:54.980Z,40.03
2022-12-18T09:50:40.892Z,40.85
2022-12-18T09:53:16.073Z,40.92
2022-12-18T09:55:45.845Z,38.97
2022-12-18T09:58:42.987Z,37.97
2022-12-18T10:01:24.231Z,38.63
2022-12-18T10:03:52.515Z,37.53
2022-12-18T10:06:31.048Z,36.97
2022-12-18T10:09:24.024Z,39.88
2022-12-18T10:12:08.580Z,39.13
2022-12-18T10:15:00.890Z,38.28
2022-12-18T10:18:00.124Z,42.72
2022-12-18T10:20:43.664Z,41.80
2022-12-18T10:23:43.678Z,41.58
2022-12-18T10:26:14.503Z,40.35
2022-12-18T10:28:42.947Z,41.13
2022-12-18T10:31:20.641Z,37.53
2022-12-18T10:33:47.526Z,34.95
2022-12-18T10:36:14.293Z,37.35
2022-12-18T10:38:41.687Z,35.70
2022-12-18T10:41:23.050Z,33.00
2022-12-18T10:44:09.575Z,36.60
2022-12-18T10:46:36.180Z,36.25
2022-12-18T10:49:02.971Z,35.13
2022-12-18T10:51:37.313Z,33.80
2022-12-18T10:56:36.836Z,31.30
2022-12-18T10:59:06.838Z,32.78
2022-12-18T11:01:58.595Z,34.50
2022-12-18T11:04:32.777Z,32.78
2022-12-18T11:07:02.374Z,32.67
2022-12-18T11:09:30.008Z,33.90
2022-12-18T11:12:00.251Z,30.92
2022-12-18T11:14:48.808Z,32.70
2022-12-18T11:17:35.896Z,32.53
2022-12-18T11:20:19.422Z,35.42
2022-12-18T11:22:56.890Z,30.40
2022-12-18T11:25:33.233Z,30.83
2022-12-18T11:28:05.677Z,31.50
2022-12-18T11:30:37.344Z,33.15
2022-12-18T11:33:12.054Z,34.15
2022-12-18T11:35:48.792Z,32.08
2022-12-18T11:38:37.796Z,31.35
2022-12-18T11:41:23.577Z,31.23
2022-12-18T11:43:59.107Z,31.45
2022-12-18T11:46:42.087Z,30.17
2022-12-18T11:49:13.357Z,32.65
2022-12-18T11:51:50.049Z,31.83
2022-12-18T11:54:17.382Z,30.27
2022-12-18T11:56:49.041Z,30.90
2022-12-18T11:59:26.773Z,30.58
2022-12-18T12:02:00.294Z,30.25
2022-12-18T12:04:42.569Z,28.75
2022-12-18T12:07:35.725Z,30.77
2022-12-18T12:10:17.256Z,31.42
2022-12-18T12:13:00.693Z,28.95
2022-12-18T12:15:58.349Z,28.55
2022-12-18T12:18:45.127Z,29.23
2022-12-18T12:21:17.636Z,30.17
2022-12-18T12:23:52.131Z,33.22
2022-12-18T12:26:46.335Z,33.55
2022-12-18T12:32:15.224Z,33.15
2022-12-18T12:35:17.579Z,33.00
2022-12-18T12:37:59.240Z,31.67
2022-12-18T12:43:25.277Z,33.58
2022-12-18T12:46:03.571Z,33.50
2022-12-18T12:48:30.847Z,37.33
2022-12-18T12:50:58.877Z,37.35
2022-12-18T12:53:31.752Z,39.45
2022-12-18T12:55:58.975Z,39.15
2022-12-18T12:58:47.470Z,39.90
2022-12-18T13:04:32.704Z,38.60
2022-12-18T13:07:27.187Z,43.05
2022-12-18T13:10:26.883Z,43.42
2022-12-18T13:13:09.009Z,41.22
2022-12-18T13:13:43.815Z,45.20
2022-12-18T13:15:46.881Z,41.42
2022-12-18T13:18:16.214Z,44.67
2022-12-18T13:20:55.366Z,39.72
2022-12-18T13:23:26.709Z,40.63
2022-12-18T13:26:13.897Z,41.53
2022-12-18T13:28:50.254Z,39.72
2022-12-18T13:31:41.848Z,44.50
2022-12-18T13:34:28.119Z,42.33
2022-12-18T13:37:00.378Z,41.22
2022-12-18T13:39:36.786Z,40.22
2022-12-18T13:42:06.985Z,44.35
2022-12-18T13:44:41.926Z,46.65
2022-12-18T13:47:34.815Z,44.08
2022-12-18T13:50:10.486Z,46.15
2022-12-18T13:52:40.302Z,46.08
2022-12-18T13:55:17.397Z,43.42
2022-12-18T13:57:44.268Z,44.65
2022-12-18T14:00:19.784Z,45.55
2022-12-18T14:02:47.381Z,44.65
2022-12-18T14:05:35.922Z,49.83
2022-12-18T14:08:13.685Z,47.80
2022-12-18T14:10:49.176Z,45.88
2022-12-18T14:13:38.313Z,45.90
2022-12-18T14:16:08.461Z,49.85
2022-12-18T14:18:49.253Z,45.15
2022-12-18T14:21:36.186Z,49.90
2022-12-18T14:24:19.767Z,50.25
2022-12-18T14:26:49.632Z,49.38
2022-12-18T14:29:28.818Z,49.53
2022-12-18T14:32:18.661Z,49.92
2022-12-18T14:34:51.144Z,50.45
2022-12-18T14:37:22.016Z,51.88
2022-12-18T14:40:07.296Z,48.20
2022-12-18T14:42:35.472Z,49.22
2022-12-18T14:45:42.634Z,48.38
2022-12-18T14:48:12.692Z,52.65
2022-12-18T14:50:41.035Z,49.67
2022-12-18T14:53:07.609Z,49.08
2022-12-18T14:55:34.196Z,51.78
2022-12-18T14:58:00.762Z,51.17
2022-12-18T15:00:27.521Z,50.83
2022-12-18T15:02:56.546Z,54.80
2022-12-18T15:05:29.414Z,50.63
2022-12-18T15:07:58.120Z,54.15
2022-12-18T15:10:29.053Z,47.97
2022-12-18T15:13:02.435Z,46.47
2022-12-18T15:15:38.111Z,47.13
2022-12-18T15:18:08.915Z,50.30
2022-12-18T15:20:51.457Z,47.65
2022-12-18T15:23:26.637Z,48.58
2022-12-18T15:26:02.043Z,47.38
2022-12-18T15:28:35.246Z,48.22
2022-12-18T15:31:32.230Z,48.55
2022-12-18T15:34:00.228Z,45.83
2022-12-18T15:36:30.713Z,47.17
2022-12-18T15:39:04.679Z,48.28
2022-12-18T15:41:35.800Z,48.58
2022-12-18T15:44:04.068Z,52.25
2022-12-18T15:46:31.914Z,51.15
2022-12-18T15:49:02.239Z,63.60
2022-12-18T15:51:33.605Z,56.58
2022-12-18T15:54:02.633Z,52.75
2022-12-18T15:56:47.305Z,49.80
2022-12-18T15:59:20.561Z,50.70
2022-12-18T16:01:51.237Z,48.40
2022-12-18T16:04:23.094Z,50.45
2022-12-18T16:09:37.582Z,45.92
2022-12-18T16:12:04.840Z,45.72
2022-12-18T16:14:33.059Z,46.67
2022-12-18T16:17:02.177Z,48.60
2022-12-18T16:19:29.437Z,46.78
2022-12-18T16:21:57.931Z,47.53
2022-12-18T16:24:30.415Z,48.00
2022-12-18T16:27:00.293Z,50.13
2022-12-18T16:29:28.662Z,48.40
2022-12-18T16:31:56.105Z,47.42
2022-12-18T16:34:29.837Z,46.20
2022-12-18T16:37:05.552Z,46.07
2022-12-18T16:39:35.277Z,42.63
2022-12-18T16:42:15.508Z,43.30
2022-12-18T16:44:42.335Z,44.08
2022-12-18T16:47:09.403Z,46.40
2022-12-18T16:49:37.712Z,48.58
2022-12-18T16:52:05.672Z,71.20
2022-12-18T16:54:33.601Z,47.03
2022-12-18T16:57:00.878Z,53.15
2022-12-18T16:59:27.678Z,49.83
2022-12-18T17:01:55.704Z,51.55
2022-12-18T17:04:22.373Z,46.40
2022-12-18T17:06:51.866Z,43.72
2022-12-18T17:09:25.943Z,45.85
2022-12-18T17:11:54.264Z,50.85
2022-12-18T17:14:23.946Z,51.33
2022-12-18T17:17:07.333Z,48.50
2022-12-18T17:19:37.801Z,47.17
2022-12-18T17:22:04.950Z,49.70
2022-12-18T17:24:34.752Z,111.00
2022-12-18T17:27:02.874Z,91.05
2022-12-18T17:29:29.421Z,52.17
2022-12-18T17:31:55.932Z,55.55
2022-12-18T17:34:23.866Z,51.10
2022-12-18T17:36:50.389Z,46.60
2022-12-18T17:39:20.020Z,47.97
2022-12-18T17:41:47.565Z,46.70
2022-12-18T17:44:14.421Z,71.82
2022-12-18T17:46:41.973Z,69.60
2022-12-18T17:49:09.330Z,61.85
2022-12-18T17:51:35.897Z,60.00
2022-12-18T17:54:02.528Z,66.90
2022-12-18T17:56:29.125Z,64.43
2022-12-18T17:58:55.724Z,70.40
2022-12-18T18:01:24.778Z,65.78
2022-12-18T18:03:53.914Z,51.17
2022-12-18T18:06:20.745Z,61.90
2022-12-18T18:08:47.818Z,59.08
2022-12-18T18:11:38.088Z,70.28
2022-12-18T18:14:16.353Z,67.95
2022-12-18T18:16:52.483Z,64.90
2022-12-18T18:19:24.111Z,66.03
2022-12-18T18:21:53.286Z,62.60
2022-12-18T18:24:23.310Z,62.17
2022-12-18T18:26:49.968Z,63.65
2022-12-18T18:29:19.733Z,57.05
2022-12-18T18:31:46.883Z,60.13
2022-12-18T18:34:18.582Z,57.75
2022-12-18T18:36:46.289Z,61.20
2022-12-18T18:39:13.914Z,61.03
2022-12-18T18:41:40.721Z,58.35
2022-12-18T18:44:10.127Z,58.67
2022-12-18T18:46:36.673Z,63.83
2022-12-18T18:49:03.475Z,70.70
2022-12-18T18:51:34.607Z,75.93
2022-12-18T18:54:01.726Z,85.45
2022-12-18T18:59:15.425Z,98.47
2022-12-18T19:01:42.095Z,106.60
2022-12-18T19:04:08.815Z,115.10
2022-12-18T19:06:35.422Z,115.80
2022-12-18T19:09:04.985Z,113.18
2022-12-18T19:11:51.007Z,113.13
2022-12-18T19:14:17.814Z,115.68
2022-12-18T19:16:45.511Z,116.07
2022-12-18T19:19:13.274Z,114.80
2022-12-18T19:21:40.837Z,104.30
2022-12-18T19:24:07.814Z,106.43
2022-12-18T19:26:36.284Z,105.45
2022-12-18T19:29:08.808Z,110.38
2022-12-18T19:31:37.170Z,99.05
2022-12-18T19:34:07.840Z,103.95
2022-12-18T19:36:36.994Z,109.55
2022-12-18T19:39:15.459Z,104.03
2022-12-18T19:41:42.829Z,102.13
2022-12-18T19:44:12.518Z,103.63
2022-12-18T19:46:41.627Z,103.32
2022-12-18T19:49:13.561Z,103.10
2022-12-18T19:51:44.322Z,96.90
2022-12-18T19:54:16.365Z,98.53
2022-12-18T19:56:44.189Z,94.35
2022-12-18T19:59:10.782Z,100.82
2022-12-18T20:01:37.543Z,95.70
2022-12-18T20:04:04.791Z,93.68
2022-12-18T20:06:35.510Z,106.35
2022-12-18T20:09:05.587Z,107.13
2022-12-18T20:11:37.510Z,115.72
2022-12-18T20:14:08.348Z,109.18
2022-12-18T20:16:35.382Z,108.30
2022-12-18T20:19:02.305Z,109.88
2022-12-18T20:21:29.613Z,104.60
2022-12-18T20:23:56.392Z,98.47
2022-12-18T20:26:24.034Z,101.65
2022-12-18T20:28:50.814Z,103.80
2022-12-18T20:31:17.606Z,96.68
2022-12-18T20:33:46.320Z,105.90
2022-12-18T20:36:21.428Z,104.03
2022-12-18T20:41:19.708Z,115.90
2022-12-18T20:43:46.946Z,108.93
2022-12-18T20:46:16.071Z,125.68
2022-12-18T20:48:43.697Z,121.63
2022-12-18T20:51:13.798Z,123.05
2022-12-18T20:53:41.793Z,125.32
2022-12-18T20:56:21.600Z,133.23
2022-12-18T20:58:50.236Z,141.38
2022-12-18T21:01:20.681Z,139.23
2022-12-18T21:03:48.212Z,150.30
2022-12-18T21:06:17.309Z,145.00
2022-12-18T21:08:44.707Z,143.65
2022-12-18T21:11:35.625Z,148.10
2022-12-18T21:14:04.389Z,135.93
2022-12-18T21:16:31.537Z,144.95
2022-12-18T21:18:58.429Z,152.50
2022-12-18T21:21:26.969Z,146.35
2022-12-18T21:23:54.661Z,150.30
2022-12-18T21:26:26.829Z,144.15
2022-12-18T21:29:02.027Z,144.30
2022-12-18T21:31:31.955Z,141.95
2022-12-18T21:34:01.287Z,147.57
2022-12-18T21:36:32.262Z,143.95
2022-12-18T21:38:59.508Z,139.77
2022-12-18T21:41:45.741Z,141.05
2022-12-18T21:44:17.404Z,142.25
2022-12-18T21:46:51.360Z,142.38
2022-12-18T21:49:21.582Z,140.50
2022-12-18T21:51:53.868Z,135.48
2022-12-18T21:54:21.045Z,132.80
2022-12-18T21:56:51.216Z,140.50
2022-12-18T21:59:30.941Z,135.73
2022-12-18T22:02:01.272Z,127.25
2022-12-18T22:04:28.769Z,128.15
2022-12-18T22:06:56.529Z,131.93
2022-12-18T22:09:24.716Z,134.90
2022-12-18T22:11:52.535Z,127.15
2022-12-18T22:14:20.350Z,125.90
2022-12-18T22:16:47.865Z,118.22
2022-12-18T22:19:15.027Z,113.03
2022-12-18T22:21:45.861Z,123.95
2022-12-18T22:24:24.227Z,118.47
2022-12-18T22:26:53.060Z,110.63
2022-12-18T22:29:43.008Z,345.77
2022-12-18T22:32:16.332Z,114.45
2022-12-18T22:34:43.583Z,115.30
2022-12-18T22:37:12.234Z,121.15
2022-12-18T22:39:39.228Z,116.45
2022-12-18T22:42:06.102Z,118.82
2022-12-18T22:44:32.664Z,119.88
2022-12-18T22:47:06.258Z,115.20
2022-12-18T22:49:35.093Z,116.32
2022-12-18T22:52:03.211Z,122.28
2022-12-18T22:54:29.922Z,109.95
2022-12-18T22:56:57.061Z,120.53
2022-12-18T22:59:24.051Z,110.32
2022-12-18T23:01:58.564Z,114.78
2022-12-18T23:04:30.617Z,116.93
2022-12-18T23:07:05.062Z,117.70
2022-12-18T23:09:32.857Z,109.50
2022-12-18T23:11:59.505Z,108.78
2022-12-18T23:14:26.573Z,108.40
2022-12-18T23:16:53.350Z,110.90
2022-12-18T23:19:20.490Z,95.30
2022-12-18T23:21:47.403Z,99.45
2022-12-18T23:24:14.619Z,100.72
2022-12-18T23:26:41.256Z,95.20
2022-12-18T23:29:07.927Z,88.30
2022-12-18T23:31:37.402Z,87.30
2022-12-18T23:34:05.470Z,89.40
2022-12-18T23:36:40.297Z,97.50
2022-12-18T23:39:28.784Z,96.93
2022-12-18T23:41:57.989Z,86.03
2022-12-18T23:44:25.001Z,94.05
2022-12-18T23:46:51.582Z,84.70
2022-12-18T23:49:18.153Z,87.68
2022-12-18T23:51:44.636Z,111.15
2022-12-18T23:54:11.211Z,88.65
2022-12-18T23:56:37.772Z,79.68
2022-12-18T23:59:04.583Z,83.32
